Huvudsida
METAR-TAF:

METAR-TAF

Flygplatser :

Sakon Nakhon, Thailand

latitud: 17-11-42N, longitud: 104-07-08E, höjd: 161 m

Aktuellt väderrapport

Denna rapport gjordes för 4 timmar och 53 minuter sedan, klockan 15:00 UTC
Vind 3 kt från syd/sydväst
Temperatur 28°C
Fuktighet 66%
Tryck 1011 hPa
Sikt 10 km eller mer
Få moln på en höjd av 3500 ft

METAR: VTUI 221500Z 21003KT 9999 FEW035 28/21 Q1011 NOSIG

Tid: 02:53 (19:53 UTC)

Väderprognos

Denna rapport gjordes för 2 timmar och 53 minuter sedan, klockan 17:00 UTC
Prognos gäller från 22 kl. 18 UTC till 23 kl. 18 UTC
Vind 5 kt från syd/sydväst
Sikt: 8000 m
Få moln på en höjd av 3000 ft

TAF: VTUI 221700Z 2218/2318 21005KT 8000 FEW030

Aktuella väderrapporter och prognoser från 4000 flygplatser (METAR- och TAF-rapporter).

De tillgängliga stationerna syns som gula och röda prickar på kartan.

För musen över prickarna för att se namnen på stationerna.

Klicka sedan för att få väderrapporter och prognoser.

För att ändra kartan: Klicka på de gröna knapparna med ett svart kors på för att zooma in; den gröna knappen med ett streck på för att zooma ut; eller på de gröna pilarna för angränsande kartor.


METAR-TAF: